This is the latest recevied weather packets stored in our database for station/object TVARMINN. If no packets are shown the sender has not sent any weather packets the latest 10 day(s).
| Time | Temp. | Humidity | Pressure | Rain* | Wind** | Luminosity | Snow |
|---|---|---|---|---|---|---|---|
| 1777495614 | 4.44° C | 73% | 1024.7 hPa | 0 mm | - | - | - |
| 1777494414 | 3.89° C | 72% | 1024.8 hPa | 0 mm | - | - | - |
| 1777493214 | 4.44° C | 71% | 1025 hPa | 0 mm | - | - | - |
| 1777492014 | 4.44° C | 67% | 1025.1 hPa | 0 mm | - | - | - |
| 1777490814 | 4.44° C | 64% | 1025.1 hPa | 0 mm | - | - | - |
| 1777489614 | 4.44° C | 61% | 1025.1 hPa | 0 mm | - | - | - |
| 1777488414 | 4.44° C | 58% | 1025 hPa | 0 mm | - | - | - |
| 1777487214 | 5° C | 56% | 1025.1 hPa | 0 mm | - | - | - |
| 1777486014 | 5° C | 55% | 1025.1 hPa | 0 mm | - | - | - |
| 1777484813 | 5.56° C | 55% | 1025.3 hPa | 0 mm | - | - | - |
| 1777483613 | 5.56° C | 58% | 1025.2 hPa | 0 mm | - | - | - |
| 1777482413 | 5.56° C | 57% | 1025.2 hPa | 0 mm | - | - | - |
| 1777481213 | 6.67° C | 50% | 1025 hPa | 0 mm | - | - | - |
| 1777480013 | 7.22° C | 41% | 1024.9 hPa | 0 mm | - | - | - |
| 1777478812 | 8.33° C | 35% | 1024.8 hPa | 0 mm | - | - | - |
| 1777477613 | 8.89° C | 35% | 1024.8 hPa | 0 mm | - | - | - |
| 1777476413 | 8.33° C | 35% | 1024.9 hPa | 0 mm | - | - | - |
| 1777475212 | 8.89° C | 37% | 1025 hPa | 0 mm | - | - | - |
| 1777474013 | 8.89° C | 35% | 1025 hPa | 0 mm | - | - | - |
| 1777472813 | 8.89° C | 35% | 1025.1 hPa | 0 mm | - | - | - |
| 1777471612 | 8.33° C | 36% | 1025.1 hPa | 0 mm | - | - | - |
| 1777470412 | 9.44° C | 35% | 1025 hPa | 0 mm | - | - | - |
| 1777469213 | 9.44° C | 37% | 1025.3 hPa | 0 mm | - | - | - |
| 1777468012 | 9.44° C | 36% | 1025.5 hPa | 0 mm | - | - | - |
| 1777466812 | 9.44° C | 26% | 1025.4 hPa | 0 mm | - | - | - |
* Rain latest hour (hover to see other rain measurements)
** Current wind speed in m/s (hover to see current wind gust speed)